Time;durP1;ratioP1;P1;durP2;ratioP2;P2;SDS_P1;SDS_P2;PMS_P1;PMS_P2;Temp;Humidity;BMP_temperature;BMP_pressure;BME280_temperature;BME280_humidity;BME280_pressure;Samples;Min_cycle;Max_cycle;Signal;HPM_P1;HPM_P2
2022/03/29 00:01:00;;;;;;;13.00;6.35;;;14.90;83.30;;;;;;5092904;28;20020;-80
2022/03/29 00:03:26;;;;;;;11.10;6.38;;;14.90;83.40;;;;;;5074573;28;20525;-80
2022/03/29 00:05:52;;;;;;;11.63;6.45;;;14.90;83.50;;;;;;5092798;28;20036;-80
2022/03/29 00:08:19;;;;;;;10.13;6.55;;;14.80;84.30;;;;;;5075075;28;20050;-80
2022/03/29 00:10:45;;;;;;;11.10;6.30;;;14.80;83.60;;;;;;5078101;28;20028;-80
2022/03/29 00:13:11;;;;;;;12.32;6.90;;;14.80;83.70;;;;;;5096228;28;20039;-80
2022/03/29 00:15:36;;;;;;;11.52;6.50;;;14.80;83.70;;;;;;5077995;28;20410;-80
2022/03/29 00:18:02;;;;;;;9.40;6.18;;;14.70;83.70;;;;;;5078001;28;20024;-80
2022/03/29 00:20:28;;;;;;;11.40;5.97;;;14.80;83.90;;;;;;5077594;28;20111;-80
2022/03/29 00:22:54;;;;;;;10.38;5.97;;;14.70;83.90;;;;;;5077946;28;20053;-80
2022/03/29 00:25:20;;;;;;;11.02;6.35;;;14.70;83.90;;;;;;5096139;28;20398;-80
2022/03/29 00:27:45;;;;;;;9.60;6.10;;;14.70;83.90;;;;;;5077819;28;20028;-80
2022/03/29 00:30:13;;;;;;;9.93;6.18;;;14.70;84.00;;;;;;5078210;28;20453;-80
2022/03/29 00:32:40;;;;;;;10.68;6.18;;;14.70;84.00;;;;;;5095930;28;20024;-80
2022/03/29 00:35:06;;;;;;;10.63;6.15;;;14.60;84.10;;;;;;5095803;28;20016;-80
2022/03/29 00:37:32;;;;;;;11.55;6.13;;;14.60;84.10;;;;;;5077589;28;20032;-80
2022/03/29 00:39:58;;;;;;;13.63;6.90;;;14.60;84.20;;;;;;5095840;28;20066;-80
2022/03/29 00:42:24;;;;;;;12.10;6.43;;;14.60;84.30;;;;;;5077637;28;20020;-80
2022/03/29 00:44:49;;;;;;;11.57;6.35;;;14.60;84.30;;;;;;5095695;28;20017;-80
2022/03/29 00:47:15;;;;;;;10.23;6.07;;;14.60;84.40;;;;;;5077432;28;20032;-80
2022/03/29 00:49:41;;;;;;;10.55;6.20;;;14.60;84.40;;;;;;5077305;28;20399;-80
2022/03/29 00:52:08;;;;;;;9.65;6.43;;;14.50;84.40;;;;;;5095416;28;20016;-80
2022/03/29 00:54:37;;;;;;;10.65;6.63;;;14.50;84.50;;;;;;5077271;28;20027;-80
2022/03/29 00:57:05;;;;;;;11.00;6.20;;;14.50;84.50;;;;;;5077174;28;20437;-80
2022/03/29 00:59:31;;;;;;;9.93;6.50;;;14.50;84.60;;;;;;5095589;28;20016;-80
2022/03/29 01:01:57;;;;;;;12.05;6.50;;;14.50;84.70;;;;;;5095609;28;20047;-80
2022/03/29 01:04:26;;;;;;;8.75;6.03;;;14.50;84.70;;;;;;5095209;28;20077;-80
2022/03/29 01:06:53;;;;;;;8.00;5.78;;;14.50;84.70;;;;;;5095126;28;20028;-80
2022/03/29 01:09:19;;;;;;;15.88;8.63;;;14.40;84.80;;;;;;5095130;28;20491;-80
2022/03/29 01:11:45;;;;;;;10.32;6.88;;;14.40;84.90;;;;;;5095102;28;20032;-80
2022/03/29 01:14:11;;;;;;;11.45;6.55;;;14.40;84.90;;;;;;5095026;28;20041;-80
2022/03/29 01:19:22;;;;;;;15.65;6.85;;;14.40;85.00;;;;;;5095028;28;20399;-80
2022/03/29 01:22:09;;;;;;;9.98;6.82;;;14.30;85.10;;;;;;5075822;28;20131;-80
2022/03/29 01:24:36;;;;;;;14.57;7.13;;;14.40;85.20;;;;;;5076689;28;20030;-80
2022/03/29 01:27:05;;;;;;;12.10;6.63;;;14.30;85.20;;;;;;5094812;28;20067;-80
2022/03/29 01:29:32;;;;;;;9.45;6.47;;;14.30;85.30;;;;;;5094785;28;20051;-80
2022/03/29 01:32:01;;;;;;;10.35;7.18;;;14.30;85.40;;;;;;5094816;28;20495;-80
2022/03/29 01:34:29;;;;;;;13.20;6.68;;;14.30;85.40;;;;;;5095092;28;20052;-80
2022/03/29 01:36:56;;;;;;;10.75;6.88;;;14.20;85.40;;;;;;5076476;28;20039;-80
2022/03/29 01:39:21;;;;;;;10.10;6.85;;;14.20;85.50;;;;;;5094823;28;20485;-80
2022/03/29 01:41:48;;;;;;;13.02;7.57;;;14.20;85.60;;;;;;5076454;28;20020;-80
2022/03/29 01:44:14;;;;;;;11.20;6.70;;;14.20;85.60;;;;;;5076418;28;20017;-80
2022/03/29 01:46:40;;;;;;;10.23;6.65;;;14.20;85.70;;;;;;5094632;28;20512;-80
2022/03/29 01:49:07;;;;;;;11.88;6.70;;;14.20;85.80;;;;;;5094483;28;20032;-80
2022/03/29 01:51:33;;;;;;;14.27;6.45;;;14.20;85.80;;;;;;5094442;28;20099;-80
2022/03/29 01:54:02;;;;;;;10.35;6.47;;;14.10;85.80;;;;;;5076165;28;20120;-80
2022/03/29 01:56:34;;;;;;;12.02;6.93;;;14.10;85.90;;;;;;5094293;28;20020;-80
2022/03/29 01:59:05;;;;;;;10.23;6.53;;;14.10;85.90;;;;;;5094276;28;20032;-80
2022/03/29 02:01:30;;;;;;;9.82;6.60;;;14.10;86.00;;;;;;5094618;28;20020;-79
2022/03/29 02:03:56;;;;;;;10.23;6.63;;;14.10;86.10;;;;;;5094496;28;20028;-80
2022/03/29 02:06:21;;;;;;;11.50;6.82;;;14.10;86.20;;;;;;5094467;28;20024;-80
2022/03/29 02:08:47;;;;;;;14.18;7.07;;;14.10;86.20;;;;;;5075906;28;20073;-80
2022/03/29 02:11:13;;;;;;;16.13;7.03;;;14.00;86.10;;;;;;5076080;28;20028;-80
2022/03/29 02:13:39;;;;;;;10.35;6.70;;;14.00;86.20;;;;;;5075862;28;20032;-80
2022/03/29 02:16:05;;;;;;;11.77;6.65;;;14.00;86.30;;;;;;5075920;28;20429;-80
2022/03/29 02:18:31;;;;;;;17.00;6.72;;;14.00;86.30;;;;;;5075812;28;20369;-80
2022/03/29 02:20:56;;;;;;;12.90;7.28;;;14.00;86.30;;;;;;5093675;28;20111;-80
2022/03/29 02:23:22;;;;;;;10.80;7.03;;;14.00;86.40;;;;;;5094161;28;20020;-79
2022/03/29 02:25:48;;;;;;;9.23;6.68;;;14.00;86.50;;;;;;5075607;28;20039;-80
2022/03/29 02:28:14;;;;;;;9.27;6.22;;;13.90;86.50;;;;;;5075498;28;20465;-80
2022/03/29 02:30:40;;;;;;;10.30;6.90;;;13.90;86.50;;;;;;5075575;28;20035;-80
2022/03/29 02:33:06;;;;;;;13.38;6.85;;;13.90;86.50;;;;;;5093480;28;20464;-80
2022/03/29 02:35:33;;;;;;;13.23;6.78;;;13.90;86.60;;;;;;5075380;28;20028;-81
2022/03/29 02:37:59;;;;;;;12.82;7.05;;;13.90;86.70;;;;;;5093629;28;20025;-80
2022/03/29 02:40:26;;;;;;;10.00;6.25;;;13.90;86.70;;;;;;5075480;28;20020;-80
2022/03/29 02:42:55;;;;;;;11.68;6.90;;;13.90;86.80;;;;;;5093632;28;20024;-81
2022/03/29 02:45:23;;;;;;;14.27;6.60;;;13.80;86.80;;;;;;5093541;28;20020;-80
2022/03/29 02:47:53;;;;;;;9.98;6.20;;;13.80;86.80;;;;;;5075400;28;20020;-80
2022/03/29 02:50:20;;;;;;;11.50;6.97;;;13.80;87.00;;;;;;5075344;28;20073;-80
2022/03/29 02:52:47;;;;;;;11.18;7.15;;;13.80;87.00;;;;;;5075365;28;20028;-80
2022/03/29 02:55:14;;;;;;;9.15;6.60;;;13.80;87.00;;;;;;5075224;28;20169;-80
2022/03/29 02:57:41;;;;;;;9.40;6.63;;;13.80;87.10;;;;;;5075277;28;20031;-80
2022/03/29 03:00:07;;;;;;;9.40;6.22;;;13.80;87.20;;;;;;5075142;28;20467;-80
2022/03/29 03:02:33;;;;;;;9.93;6.28;;;13.80;87.20;;;;;;5093277;28;20033;-80
2022/03/29 03:05:02;;;;;;;13.60;7.20;;;13.80;87.20;;;;;;5075059;28;20086;-80
2022/03/29 03:07:28;;;;;;;14.32;6.65;;;13.70;87.30;;;;;;5075157;28;20020;-80
2022/03/29 03:09:54;;;;;;;10.00;7.03;;;13.70;87.30;;;;;;5093217;28;20020;-80
2022/03/29 03:12:20;;;;;;;9.02;6.35;;;13.70;87.40;;;;;;5093432;28;20487;-80
2022/03/29 03:14:46;;;;;;;10.30;6.43;;;13.70;87.50;;;;;;5074992;28;20103;-80
2022/03/29 03:17:12;;;;;;;10.48;6.90;;;13.70;87.50;;;;;;5074925;28;20443;-80
2022/03/29 03:19:38;;;;;;;10.38;6.78;;;13.70;87.60;;;;;;5093343;28;20061;-80
2022/03/29 03:22:03;;;;;;;9.77;6.43;;;13.60;87.60;;;;;;5092934;28;20063;-81
2022/03/29 03:24:29;;;;;;;11.40;7.32;;;13.60;87.60;;;;;;5093062;28;20027;-80
2022/03/29 03:26:55;;;;;;;11.77;7.20;;;13.60;87.70;;;;;;5093038;28;20031;-80
2022/03/29 03:29:21;;;;;;;13.80;6.65;;;13.60;87.70;;;;;;5092921;28;20041;-80
2022/03/29 03:31:46;;;;;;;12.63;6.78;;;13.60;87.80;;;;;;5075621;28;20050;-80
2022/03/29 03:34:12;;;;;;;10.35;6.32;;;13.60;87.80;;;;;;5074762;28;20032;-80
2022/03/29 03:36:38;;;;;;;9.98;6.43;;;13.60;87.80;;;;;;5092847;28;20032;-80
2022/03/29 03:39:03;;;;;;;12.07;6.93;;;13.60;87.90;;;;;;5074785;28;20016;-80
2022/03/29 03:41:29;;;;;;;12.68;7.45;;;13.60;88.00;;;;;;5092895;28;20386;-80
2022/03/29 03:43:55;;;;;;;10.77;6.38;;;13.50;88.00;;;;;;5094480;28;20021;-80
2022/03/29 03:46:20;;;;;;;13.88;7.07;;;13.50;88.00;;;;;;5096839;28;20032;-80
2022/03/29 03:48:46;;;;;;;9.07;6.47;;;13.50;88.00;;;;;;5096893;28;20089;-80
2022/03/29 03:51:11;;;;;;;11.60;6.80;;;13.50;88.10;;;;;;5078582;28;20035;-80
2022/03/29 03:53:37;;;;;;;10.50;6.93;;;13.50;88.10;;;;;;5096723;28;20379;-80
2022/03/29 03:56:03;;;;;;;10.77;6.78;;;13.50;88.10;;;;;;5096670;28;20077;-80
2022/03/29 03:58:29;;;;;;;11.00;6.35;;;13.50;88.20;;;;;;5078325;28;20017;-81
2022/03/29 04:00:54;;;;;;;10.10;6.60;;;13.40;88.20;;;;;;5078330;28;20020;-80
2022/03/29 04:03:20;;;;;;;10.57;6.70;;;13.40;88.20;;;;;;5078310;28;20023;-80
2022/03/29 04:05:46;;;;;;;9.35;6.95;;;13.40;89.00;;;;;;5078295;28;20056;-80
2022/03/29 04:08:12;;;;;;;10.45;6.70;;;13.40;88.30;;;;;;5096425;28;20523;-80
2022/03/29 04:10:39;;;;;;;12.90;7.05;;;13.40;88.30;;;;;;5096426;28;20048;-80
2022/03/29 04:13:05;;;;;;;9.57;6.65;;;13.40;88.40;;;;;;5096325;28;20024;-80
2022/03/29 04:15:31;;;;;;;10.57;6.35;;;13.40;89.20;;;;;;5077935;28;20038;-80
2022/03/29 04:17:57;;;;;;;11.30;7.40;;;13.30;88.30;;;;;;5096295;28;20471;-80
2022/03/29 04:20:23;;;;;;;11.18;6.80;;;13.30;88.40;;;;;;5077821;28;20070;-80
2022/03/29 04:22:48;;;;;;;11.43;7.32;;;13.30;88.50;;;;;;5077920;28;20107;-80
2022/03/29 04:25:14;;;;;;;8.70;6.28;;;13.30;88.50;;;;;;5077952;28;20388;-80
2022/03/29 04:27:40;;;;;;;11.93;7.25;;;13.30;88.50;;;;;;5077915;28;20027;-80
2022/03/29 04:30:06;;;;;;;14.18;7.18;;;13.30;88.60;;;;;;5077861;28;20024;-80
2022/03/29 04:32:34;;;;;;;10.68;7.35;;;13.30;88.60;;;;;;5077714;28;20105;-80
2022/03/29 04:35:00;;;;;;;12.00;6.40;;;13.30;89.40;;;;;;5077679;28;20020;-80
2022/03/29 04:37:26;;;;;;;10.73;6.75;;;13.30;88.70;;;;;;5077737;28;20498;-80
2022/03/29 04:39:51;;;;;;;10.05;6.85;;;13.20;88.60;;;;;;5095915;28;20134;-80
2022/03/29 04:42:18;;;;;;;10.40;6.72;;;13.20;88.70;;;;;;5078410;28;20463;-79
2022/03/29 04:44:44;;;;;;;10.95;6.88;;;13.20;88.70;;;;;;5095693;28;20043;-80
2022/03/29 04:47:10;;;;;;;13.05;6.53;;;13.20;88.80;;;;;;5077568;28;20028;-80
2022/03/29 04:49:36;;;;;;;10.52;6.57;;;13.20;88.90;;;;;;5077451;28;20058;-80
2022/03/29 04:52:02;;;;;;;12.80;7.07;;;13.20;88.90;;;;;;5077437;28;20028;-80
2022/03/29 04:54:28;;;;;;;12.13;7.47;;;13.10;88.90;;;;;;5077225;28;20028;-80
2022/03/29 04:56:54;;;;;;;12.32;7.07;;;13.10;88.90;;;;;;5077162;28;20028;-80
2022/03/29 04:59:19;;;;;;;11.80;7.10;;;13.10;89.70;;;;;;5077369;28;20100;-80
2022/03/29 05:01:45;;;;;;;11.80;6.90;;;13.10;88.90;;;;;;5077240;28;20475;-80
2022/03/29 05:04:11;;;;;;;10.70;7.03;;;13.10;89.00;;;;;;5095231;28;20032;-80
2022/03/29 05:06:37;;;;;;;11.90;7.07;;;13.10;89.00;;;;;;5077071;28;20056;-80
2022/03/29 05:09:03;;;;;;;12.20;7.20;;;13.10;89.00;;;;;;5095165;28;20028;-80
2022/03/29 05:11:29;;;;;;;8.98;6.57;;;13.10;89.10;;;;;;5076968;28;20028;-80
2022/03/29 05:13:55;;;;;;;11.35;7.30;;;13.10;89.10;;;;;;5076882;28;20028;-80
2022/03/29 05:16:20;;;;;;;11.98;6.63;;;13.10;89.20;;;;;;5094906;28;20092;-80
2022/03/29 05:18:46;;;;;;;10.43;7.32;;;13.00;89.10;;;;;;5076700;28;20026;-80
2022/03/29 05:21:13;;;;;;;10.95;6.60;;;13.00;89.20;;;;;;5094706;28;20050;-80
2022/03/29 05:23:38;;;;;;;10.27;6.90;;;13.00;89.20;;;;;;5076664;28;20111;-80
2022/03/29 05:26:04;;;;;;;12.80;7.70;;;13.00;89.30;;;;;;5076635;28;20461;-80
2022/03/29 05:28:30;;;;;;;13.38;7.50;;;13.00;89.30;;;;;;5076676;28;20128;-80
2022/03/29 05:30:55;;;;;;;10.07;7.05;;;13.00;89.30;;;;;;5094966;28;20020;-80
2022/03/29 05:33:21;;;;;;;15.02;7.45;;;13.00;89.40;;;;;;5076437;28;20122;-80
2022/03/29 05:35:47;;;;;;;13.35;7.65;;;13.00;89.40;;;;;;5094557;28;20032;-80
2022/03/29 05:38:13;;;;;;;13.77;7.68;;;13.00;90.00;;;;;;5094584;28;20051;-80
2022/03/29 05:40:39;;;;;;;11.38;7.55;;;13.00;89.40;;;;;;5076391;28;20024;-79
2022/03/29 05:43:10;;;;;;;15.32;7.50;;;13.00;89.40;;;;;;5076322;28;20417;-80
2022/03/29 05:45:36;;;;;;;12.85;7.15;;;12.90;89.40;;;;;;5076245;28;20545;-80
2022/03/29 05:50:46;;;;;;;12.75;7.05;;;12.90;89.40;;;;;;5094652;28;20502;-80
2022/03/29 05:53:12;;;;;;;11.23;6.93;;;12.90;89.40;;;;;;5094252;28;20024;-80
2022/03/29 05:55:38;;;;;;;12.73;7.47;;;12.90;89.50;;;;;;5094398;28;20028;-80
2022/03/29 05:58:03;;;;;;;12.27;7.50;;;12.90;89.50;;;;;;5075979;28;20062;-80
2022/03/29 06:00:31;;;;;;;11.93;6.70;;;12.90;89.50;;;;;;5094189;28;20016;-80
2022/03/29 06:02:57;;;;;;;14.73;7.25;;;12.90;89.50;;;;;;5075862;28;20020;-80
2022/03/29 06:05:23;;;;;;;15.52;8.73;;;12.90;89.60;;;;;;5094042;28;20043;-80
2022/03/29 06:07:50;;;;;;;14.57;8.75;;;12.90;89.60;;;;;;5075380;28;20024;-80
2022/03/29 06:10:15;;;;;;;13.20;7.35;;;12.90;89.60;;;;;;5075812;28;20544;-80
2022/03/29 06:12:44;;;;;;;16.20;7.60;;;12.90;89.70;;;;;;5075760;28;20023;-80
2022/03/29 06:15:11;;;;;;;15.10;7.80;;;12.90;89.80;;;;;;5093796;28;20506;-80
2022/03/29 06:17:37;;;;;;;14.05;7.85;;;12.90;89.80;;;;;;5075621;28;20078;-80
2022/03/29 06:20:09;;;;;;;14.73;7.72;;;12.90;89.80;;;;;;5075506;28;20361;-80
2022/03/29 06:22:40;;;;;;;14.18;8.25;;;12.90;89.80;;;;;;5075692;28;20035;-80
2022/03/29 06:25:08;;;;;;;15.95;8.02;;;12.90;89.80;;;;;;5093730;28;20039;-80
2022/03/29 06:27:33;;;;;;;14.55;8.23;;;12.90;89.90;;;;;;5093630;28;20020;-80
2022/03/29 06:29:59;;;;;;;13.07;7.68;;;12.90;89.90;;;;;;5075571;28;20432;-80
2022/03/29 06:32:24;;;;;;;14.65;7.75;;;12.90;90.00;;;;;;5075471;28;20031;-80
2022/03/29 06:34:50;;;;;;;15.35;8.18;;;12.90;90.00;;;;;;5093555;28;20027;-80
2022/03/29 06:37:16;;;;;;;13.65;7.70;;;12.90;90.00;;;;;;5093518;28;20028;-80
2022/03/29 06:39:42;;;;;;;11.98;7.38;;;12.90;90.00;;;;;;5093698;28;20476;-80
2022/03/29 06:42:08;;;;;;;16.85;8.20;;;12.90;90.00;;;;;;5075190;28;20028;-80
2022/03/29 06:44:34;;;;;;;15.68;8.52;;;12.90;90.00;;;;;;5075302;28;20107;-80
2022/03/29 06:47:01;;;;;;;15.40;8.10;;;12.90;90.10;;;;;;5075229;28;20077;-80
2022/03/29 06:49:27;;;;;;;12.77;7.13;;;12.90;90.10;;;;;;5093293;28;20046;-80
2022/03/29 06:51:53;;;;;;;15.77;7.40;;;12.90;90.10;;;;;;5093246;28;20020;-80
2022/03/29 06:54:20;;;;;;;14.82;7.65;;;12.90;90.10;;;;;;5093792;28;20445;-80
2022/03/29 06:56:46;;;;;;;12.40;7.78;;;12.90;90.10;;;;;;5074993;28;20042;-80
2022/03/29 06:59:12;;;;;;;12.18;7.70;;;12.90;90.20;;;;;;5075117;28;20047;-80
2022/03/29 07:01:38;;;;;;;11.35;7.20;;;12.90;90.20;;;;;;5075036;28;20021;-80
2022/03/29 07:04:07;;;;;;;11.48;7.53;;;12.90;90.20;;;;;;5074975;28;20475;-79
2022/03/29 07:06:33;;;;;;;14.02;7.93;;;12.90;90.20;;;;;;5074948;28;20028;-80
2022/03/29 07:11:43;;;;;;;13.52;7.40;;;12.90;90.30;;;;;;5093594;28;20039;-80
2022/03/29 07:14:09;;;;;;;10.40;7.05;;;12.90;90.30;;;;;;5074779;28;20118;-80
2022/03/29 07:16:34;;;;;;;13.13;6.78;;;13.00;90.40;;;;;;5092971;28;20526;-80
2022/03/29 07:19:01;;;;;;;12.05;7.75;;;13.00;90.40;;;;;;5076685;28;20494;-80
2022/03/29 07:21:27;;;;;;;14.65;7.20;;;13.00;90.40;;;;;;5097082;28;20036;-80
2022/03/29 07:23:52;;;;;;;11.93;7.68;;;13.00;90.40;;;;;;5079034;28;20024;-80
2022/03/29 07:26:18;;;;;;;13.48;7.35;;;12.90;90.40;;;;;;5097160;28;20028;-80
2022/03/29 07:28:44;;;;;;;11.60;7.13;;;13.00;90.40;;;;;;5097116;28;20020;-81
2022/03/29 07:31:09;;;;;;;14.27;7.43;;;13.00;90.40;;;;;;5078768;28;20027;-79
2022/03/29 07:33:35;;;;;;;12.70;7.32;;;13.00;90.40;;;;;;5097353;28;20028;-80
2022/03/29 07:36:03;;;;;;;11.98;7.05;;;13.00;90.30;;;;;;5078719;28;20028;-80
2022/03/29 07:38:29;;;;;;;14.32;7.20;;;13.10;90.30;;;;;;5096855;28;20447;-79
2022/03/29 07:40:55;;;;;;;11.40;7.05;;;13.10;90.20;;;;;;5078584;28;20028;-80
2022/03/29 07:43:22;;;;;;;14.70;7.35;;;13.10;90.20;;;;;;5097023;28;20160;-80
2022/03/29 07:45:48;;;;;;;11.45;6.68;;;13.20;90.20;;;;;;5096711;28;20491;-79
2022/03/29 07:48:13;;;;;;;10.88;6.90;;;13.20;90.10;;;;;;5078510;28;20536;-80
2022/03/29 07:50:39;;;;;;;11.60;6.85;;;13.30;90.10;;;;;;5096671;28;20028;-79
2022/03/29 07:53:05;;;;;;;10.95;6.70;;;13.30;90.00;;;;;;5078561;28;20028;-80
2022/03/29 07:55:32;;;;;;;13.20;7.20;;;13.30;90.00;;;;;;5078535;28;20573;-79
2022/03/29 07:57:57;;;;;;;13.65;6.95;;;13.40;90.00;;;;;;5096752;28;20024;-80
2022/03/29 08:00:32;;;;;;;9.85;6.70;;;13.40;90.00;;;;;;5096970;28;20379;-80
2022/03/29 08:03:09;;;;;;;10.68;6.97;;;13.40;90.00;;;;;;5078507;28;20141;-80
2022/03/29 08:05:36;;;;;;;12.77;7.55;;;13.40;90.00;;;;;;5096663;28;20023;-79
2022/03/29 08:08:03;;;;;;;10.55;6.72;;;13.50;90.00;;;;;;5078399;28;20070;-80
2022/03/29 08:10:33;;;;;;;10.52;6.80;;;13.50;90.00;;;;;;5096437;28;20024;-79
2022/03/29 08:13:05;;;;;;;10.88;6.70;;;13.50;90.00;;;;;;5096450;28;20480;-80
2022/03/29 08:15:31;;;;;;;10.43;6.93;;;13.50;90.30;;;;;;5096431;28;20024;-80
2022/03/29 08:17:57;;;;;;;12.10;7.50;;;13.50;90.00;;;;;;5096379;28;20020;-80
2022/03/29 08:20:24;;;;;;;15.32;7.47;;;13.50;90.00;;;;;;5077876;28;20491;-80
2022/03/29 08:22:50;;;;;;;9.27;6.45;;;13.50;90.00;;;;;;5096275;28;20047;-79
2022/03/29 08:25:18;;;;;;;12.68;7.18;;;13.40;90.10;;;;;;5096261;28;20028;-79
2022/03/29 08:27:46;;;;;;;10.70;6.93;;;13.40;90.10;;;;;;5077915;28;20024;-79
2022/03/29 08:30:13;;;;;;;16.77;7.10;;;13.40;90.20;;;;;;5095401;28;20111;-80
2022/03/29 08:32:39;;;;;;;11.18;6.95;;;13.40;90.20;;;;;;5095841;28;20096;-79
2022/03/29 08:35:08;;;;;;;11.02;7.00;;;13.50;90.20;;;;;;5077678;28;20027;-79
2022/03/29 08:37:37;;;;;;;10.25;6.78;;;13.50;90.20;;;;;;5077559;28;20028;-80
2022/03/29 08:40:13;;;;;;;8.82;6.32;;;13.50;90.10;;;;;;5077541;28;20115;-79
2022/03/29 08:42:43;;;;;;;11.23;6.60;;;13.60;90.10;;;;;;5077620;28;20020;-80
2022/03/29 08:45:14;;;;;;;14.52;6.82;;;13.60;90.00;;;;;;5077455;28;20016;-79
2022/03/29 08:47:42;;;;;;;16.33;7.07;;;13.60;89.90;;;;;;5077365;28;20027;-80
2022/03/29 08:50:09;;;;;;;10.88;6.15;;;13.60;90.00;;;;;;5077393;28;20506;-79
2022/03/29 08:52:36;;;;;;;9.07;6.18;;;13.60;90.00;;;;;;5077846;28;20509;-80
2022/03/29 08:55:03;;;;;;;18.00;6.75;;;13.60;89.90;;;;;;5077169;28;20023;-80
2022/03/29 08:57:30;;;;;;;8.70;6.03;;;13.70;89.80;;;;;;5095360;28;20387;-80
2022/03/29 08:59:56;;;;;;;8.95;6.45;;;13.60;89.90;;;;;;5095276;28;20023;-80
2022/03/29 09:02:22;;;;;;;10.18;6.10;;;13.60;89.90;;;;;;5077044;28;20035;-80
2022/03/29 09:05:16;;;;;;;11.82;6.50;;;13.70;89.90;;;;;;5077058;28;20024;-80
2022/03/29 09:07:55;;;;;;;10.45;6.30;;;13.70;89.90;;;;;;5076946;28;20032;-80
2022/03/29 09:10:38;;;;;;;11.70;6.70;;;13.70;89.80;;;;;;5076934;28;20383;-80
2022/03/29 09:13:24;;;;;;;10.00;6.05;;;13.70;89.80;;;;;;5076966;28;20073;-80
2022/03/29 09:15:53;;;;;;;8.07;5.80;;;13.70;89.70;;;;;;5095354;28;20020;-80
2022/03/29 09:18:19;;;;;;;10.43;6.43;;;13.70;89.80;;;;;;5076633;28;20069;-80
2022/03/29 09:20:46;;;;;;;9.48;6.40;;;13.70;90.10;;;;;;5094760;28;20514;-80
2022/03/29 09:23:17;;;;;;;8.20;5.57;;;13.70;89.50;;;;;;5094921;28;20027;-80
2022/03/29 09:25:48;;;;;;;10.52;5.60;;;13.70;89.60;;;;;;5076661;28;20027;-80
2022/03/29 09:28:16;;;;;;;9.25;5.80;;;13.70;89.60;;;;;;5094815;28;20489;-80
2022/03/29 09:30:43;;;;;;;10.40;5.88;;;13.70;89.60;;;;;;5076616;28;20514;-80
2022/03/29 09:33:15;;;;;;;12.20;6.47;;;13.60;89.70;;;;;;5076524;28;20031;-79
2022/03/29 09:36:04;;;;;;;12.38;6.32;;;13.60;89.80;;;;;;5076390;28;20487;-79
2022/03/29 09:38:34;;;;;;;7.65;5.60;;;13.60;89.90;;;;;;5094586;28;20012;-79
2022/03/29 09:41:01;;;;;;;8.35;5.75;;;13.60;89.90;;;;;;5075504;28;20502;-79
2022/03/29 09:43:29;;;;;;;12.15;6.38;;;13.60;89.90;;;;;;5094397;28;20031;-79
2022/03/29 09:45:59;;;;;;;10.10;5.90;;;13.60;89.80;;;;;;5094387;28;20030;-80
2022/03/29 09:48:45;;;;;;;9.75;5.78;;;13.60;89.80;;;;;;5076232;28;20052;-79
2022/03/29 09:51:12;;;;;;;7.55;5.88;;;13.60;89.70;;;;;;5094296;28;20099;-79
2022/03/29 09:53:37;;;;;;;8.60;5.88;;;13.60;89.70;;;;;;5076109;28;20391;-79
2022/03/29 09:56:05;;;;;;;8.45;6.05;;;13.60;89.70;;;;;;5094203;28;20026;-79
2022/03/29 09:58:30;;;;;;;10.50;6.00;;;13.60;89.70;;;;;;5076006;28;20025;-79
2022/03/29 10:00:57;;;;;;;10.07;5.60;;;13.60;89.70;;;;;;5094117;28;20364;-79
2022/03/29 10:03:26;;;;;;;7.25;5.63;;;13.60;89.70;;;;;;5075842;28;20024;-80
2022/03/29 10:05:54;;;;;;;9.32;5.50;;;13.60;89.70;;;;;;5094043;28;20103;-80
2022/03/29 10:11:13;;;;;;;10.80;5.78;;;13.60;89.70;;;;;;5094321;28;20035;-79
2022/03/29 10:13:40;;;;;;;9.88;5.40;;;13.60;89.70;;;;;;5093951;28;20363;-79
2022/03/29 10:16:10;;;;;;;8.50;5.75;;;13.60;89.80;;;;;;5075568;28;20020;-79
2022/03/29 10:18:37;;;;;;;13.30;6.53;;;13.60;90.00;;;;;;5075665;28;20494;-80
2022/03/29 10:21:04;;;;;;;9.77;5.97;;;13.60;90.40;;;;;;5075969;28;20047;-80
2022/03/29 10:23:31;;;;;;;8.90;5.95;;;13.60;90.10;;;;;;5075481;28;20023;-80
2022/03/29 10:25:59;;;;;;;9.48;5.75;;;13.60;90.00;;;;;;5075987;28;20024;-79
2022/03/29 10:28:28;;;;;;;13.43;6.55;;;13.60;90.00;;;;;;5075645;28;20082;-80
2022/03/29 10:30:54;;;;;;;13.15;7.05;;;13.60;90.00;;;;;;5077234;28;20395;-80
2022/03/29 10:33:30;;;;;;;11.98;7.13;;;13.90;90.00;;;;;;5093781;28;20024;-80
2022/03/29 10:35:59;;;;;;;24.95;7.95;;;13.90;89.80;;;;;;5075498;28;20443;-79
2022/03/29 10:38:46;;;;;;;12.63;7.50;;;13.90;89.70;;;;;;5093952;28;20016;-79
2022/03/29 10:41:26;;;;;;;11.80;7.22;;;13.80;89.70;;;;;;5093900;28;20464;-79
2022/03/29 10:44:08;;;;;;;13.05;7.00;;;13.80;89.80;;;;;;5093589;28;20480;-79
2022/03/29 10:46:50;;;;;;;16.10;6.75;;;13.70;90.20;;;;;;5093625;28;20016;-80
2022/03/29 10:49:20;;;;;;;15.98;7.50;;;13.70;90.00;;;;;;5075465;28;20078;-79
2022/03/29 10:51:50;;;;;;;12.85;6.43;;;13.70;90.00;;;;;;5075465;28;20024;-79
2022/03/29 10:54:26;;;;;;;16.67;7.20;;;13.70;90.00;;;;;;5093376;28;20503;-79
2022/03/29 10:56:57;;;;;;;11.65;5.93;;;13.70;90.00;;;;;;5075251;28;20028;-80
2022/03/29 10:59:24;;;;;;;10.40;6.32;;;13.70;90.00;;;;;;5075047;28;20016;-79
2022/03/29 11:02:14;;;;;;;9.27;6.70;;;13.60;89.90;;;;;;5075084;28;20028;-79
2022/03/29 11:05:05;;;;;;;9.98;6.28;;;13.60;89.80;;;;;;5075111;28;20111;-80
2022/03/29 11:07:35;;;;;;;10.30;6.65;;;13.60;89.90;;;;;;5093111;28;20025;-79
2022/03/29 11:10:09;;;;;;;16.20;6.50;;;13.60;89.90;;;;;;5093100;28;20062;-80
2022/03/29 11:12:57;;;;;;;10.53;6.60;;;13.60;89.80;;;;;;5093072;28;20028;-79
2022/03/29 11:15:25;;;;;;;12.82;6.03;;;13.60;89.70;;;;;;5092963;28;20324;-79
2022/03/29 11:17:52;;;;;;;11.77;6.25;;;13.60;89.60;;;;;;5074966;28;20028;-79
2022/03/29 11:20:38;;;;;;;12.80;6.07;;;13.60;89.30;;;;;;5074776;28;20111;-79
2022/03/29 11:23:11;;;;;;;13.43;6.25;;;13.70;89.20;;;;;;5074840;28;20028;-80
2022/03/29 11:25:43;;;;;;;10.95;6.07;;;13.70;89.10;;;;;;5074770;28;20028;-79
2022/03/29 11:28:11;;;;;;;10.38;5.80;;;13.70;89.10;;;;;;5074719;28;20119;-79
2022/03/29 11:30:36;;;;;;;12.65;6.22;;;13.70;89.10;;;;;;5092920;28;20024;-79
2022/03/29 11:33:05;;;;;;;13.02;6.78;;;13.70;89.00;;;;;;5092866;28;20036;-79
2022/03/29 11:35:35;;;;;;;10.60;5.85;;;13.70;88.90;;;;;;5074666;28;20445;-79
2022/03/29 11:38:16;;;;;;;7.90;5.45;;;13.70;89.00;;;;;;5074772;28;20021;-79
2022/03/29 11:40:42;;;;;;;8.95;5.57;;;13.70;89.00;;;;;;5092764;28;20098;-80
2022/03/29 11:43:15;;;;;;;10.80;5.88;;;13.70;88.80;;;;;;5074590;28;20055;-79
2022/03/29 11:45:48;;;;;;;9.00;5.95;;;13.70;88.80;;;;;;5074609;28;20059;-79
2022/03/29 11:48:18;;;;;;;8.82;5.90;;;13.70;88.80;;;;;;5092967;28;20047;-80
2022/03/29 11:50:52;;;;;;;9.63;5.22;;;13.70;88.50;;;;;;5074573;28;20020;-80
2022/03/29 11:53:32;;;;;;;16.50;6.80;;;13.70;88.70;;;;;;5092759;28;20471;-80
2022/03/29 11:56:08;;;;;;;9.38;5.68;;;13.70;88.20;;;;;;5074350;28;20039;-79
2022/03/29 11:58:51;;;;;;;10.93;5.53;;;13.70;88.40;;;;;;5092685;28;20017;-79
2022/03/29 12:01:29;;;;;;;10.00;5.90;;;13.70;88.50;;;;;;5092666;28;20095;-79
2022/03/29 12:03:59;;;;;;;11.90;5.55;;;13.60;89.00;;;;;;5074445;28;20024;-79
2022/03/29 12:06:30;;;;;;;14.63;6.30;;;13.70;88.20;;;;;;5096358;28;20458;-79
2022/03/29 12:09:03;;;;;;;14.60;6.38;;;13.60;88.20;;;;;;5096626;28;20439;-80
2022/03/29 12:11:42;;;;;;;10.05;5.63;;;13.60;88.10;;;;;;5096549;28;20024;-79
2022/03/29 12:14:11;;;;;;;14.02;6.32;;;13.60;88.30;;;;;;5078358;28;20024;-80
2022/03/29 12:16:42;;;;;;;9.35;5.28;;;13.60;88.40;;;;;;5096192;28;20426;-80
2022/03/29 12:19:09;;;;;;;9.70;5.53;;;13.60;88.50;;;;;;5077925;28;20024;-80
2022/03/29 12:21:34;;;;;;;14.90;5.70;;;13.60;88.50;;;;;;5077729;28;20044;-79
2022/03/29 12:24:11;;;;;;;9.60;5.80;;;13.60;88.50;;;;;;5077906;28;20023;-79
2022/03/29 12:26:44;;;;;;;8.65;5.30;;;13.50;88.40;;;;;;5077984;28;20445;-79
2022/03/29 12:29:15;;;;;;;11.40;6.28;;;13.60;88.40;;;;;;5096559;28;20035;-79
2022/03/29 12:31:41;;;;;;;9.05;5.90;;;13.60;88.40;;;;;;5096433;28;20165;-79
2022/03/29 12:34:08;;;;;;;8.82;5.43;;;13.50;88.20;;;;;;5077880;28;20479;-79
2022/03/29 12:36:40;;;;;;;8.55;6.00;;;13.60;88.30;;;;;;5077771;28;20039;-79
2022/03/29 12:39:07;;;;;;;9.95;6.00;;;13.60;88.30;;;;;;5096036;28;20138;-80
2022/03/29 12:41:37;;;;;;;10.32;6.28;;;13.60;88.20;;;;;;5077830;28;20020;-79
2022/03/29 12:44:05;;;;;;;10.85;5.57;;;13.60;88.20;;;;;;5095926;28;20471;-79
2022/03/29 12:46:32;;;;;;;10.73;6.30;;;13.60;88.50;;;;;;5077730;28;20020;-80
2022/03/29 12:48:58;;;;;;;10.45;6.78;;;13.60;88.30;;;;;;5077634;28;20085;-79
2022/03/29 12:51:33;;;;;;;9.38;5.93;;;13.60;88.10;;;;;;5095802;28;20028;-79
2022/03/29 12:54:07;;;;;;;8.05;5.65;;;13.60;88.10;;;;;;5095827;28;20474;-80